createdAt,value
2022-09-15T00:00:12.611Z,97396.81
2022-09-15T00:03:15.903Z,97375.88
2022-09-15T00:06:20.213Z,97375.59
2022-09-15T00:09:23.651Z,97361.09
2022-09-15T00:12:27.746Z,97347.28
2022-09-15T00:15:31.287Z,97324.78
2022-09-15T00:18:36.372Z,97338.56
2022-09-15T00:21:41.605Z,97344.75
2022-09-15T00:24:44.573Z,97358.66
2022-09-15T00:27:48.548Z,97362.53
2022-09-15T00:30:54.347Z,97344.47
2022-09-15T00:33:59.668Z,97306.72
2022-09-15T00:37:02.639Z,97308.75
2022-09-15T00:40:06.401Z,97301.59
2022-09-15T00:43:10.989Z,97302.16
2022-09-15T00:46:16.485Z,97286.53
2022-09-15T00:49:21.606Z,97289.84
2022-09-15T00:52:27.487Z,97299.44
2022-09-15T00:55:47.896Z,97328.84
2022-09-15T00:58:57.048Z,97352.03
2022-09-15T01:02:15.881Z,97357.91
2022-09-15T01:05:23.400Z,97384.41
2022-09-15T01:08:36.690Z,97393.59
2022-09-15T01:11:40.266Z,97399.75
2022-09-15T01:14:43.190Z,97389.84
2022-09-15T01:18:04.063Z,97379.84
2022-09-15T01:21:06.999Z,97380.09
2022-09-15T01:24:34.843Z,97386.53
2022-09-15T01:28:15.214Z,97392.16
2022-09-15T01:31:25.058Z,97393.00
2022-09-15T01:34:31.243Z,97393.72
2022-09-15T01:37:38.111Z,97402.34
2022-09-15T01:41:25.395Z,97385.53
2022-09-15T01:44:36.498Z,97394.72
2022-09-15T01:47:39.862Z,97394.72
2022-09-15T01:50:46.489Z,97395.47
2022-09-15T01:53:49.878Z,97390.28
2022-09-15T01:56:53.087Z,97390.69
2022-09-15T01:59:56.529Z,97398.12
2022-09-15T02:03:04.743Z,97395.59
2022-09-15T02:06:14.674Z,97397.59
2022-09-15T02:09:22.745Z,97391.84
2022-09-15T02:12:51.034Z,97396.44
2022-09-15T02:15:57.923Z,97388.16
2022-09-15T02:19:11.132Z,97392.56
2022-09-15T02:22:17.719Z,97395.59
2022-09-15T02:25:33.178Z,97393.13
2022-09-15T02:28:38.609Z,97386.13
2022-09-15T02:31:42.497Z,97379.97
2022-09-15T02:34:47.860Z,97387.69
2022-09-15T02:37:52.013Z,97383.22
2022-09-15T02:40:54.656Z,97375.75
2022-09-15T02:43:57.678Z,97382.06
2022-09-15T02:47:02.002Z,97382.94
2022-09-15T02:50:05.973Z,97379.50
2022-09-15T02:53:09.155Z,97378.91
2022-09-15T02:56:13.001Z,97383.91
2022-09-15T02:59:15.831Z,97382.34
2022-09-15T03:02:20.557Z,97379.59
2022-09-15T03:05:26.385Z,97389.03
2022-09-15T03:08:29.578Z,97391.47
2022-09-15T03:11:32.843Z,97388.91
2022-09-15T03:14:36.059Z,97387.31
2022-09-15T03:17:41.697Z,97397.34
2022-09-15T03:20:44.717Z,97392.75
2022-09-15T03:23:48.154Z,97388.44
2022-09-15T03:26:51.591Z,97394.03
2022-09-15T03:29:54.573Z,97391.31
2022-09-15T03:32:57.721Z,97395.63
2022-09-15T03:36:01.407Z,97403.78
2022-09-15T03:39:04.939Z,97384.41
2022-09-15T03:42:07.884Z,97389.31
2022-09-15T03:45:10.957Z,97404.09
2022-09-15T03:48:13.726Z,97398.38
2022-09-15T03:51:17.180Z,97399.97
2022-09-15T03:54:20.338Z,97402.81
2022-09-15T03:57:23.537Z,97400.97
2022-09-15T04:00:26.399Z,97392.66
2022-09-15T04:03:31.735Z,97396.09
2022-09-15T04:06:35.658Z,97390.06
2022-09-15T04:09:38.824Z,97399.09
2022-09-15T04:12:42.086Z,97398.81
2022-09-15T04:15:45.165Z,97411.28
2022-09-15T04:18:47.941Z,97409.56
2022-09-15T04:21:50.822Z,97412.31
2022-09-15T04:24:53.826Z,97431.03
2022-09-15T04:27:57.803Z,97424.16
2022-09-15T04:31:05.582Z,97423.28
2022-09-15T04:34:09.460Z,97422.56
2022-09-15T04:37:12.535Z,97406.50
2022-09-15T04:40:16.069Z,97408.97
2022-09-15T04:43:18.989Z,97408.78
2022-09-15T04:46:22.117Z,97427.72
2022-09-15T04:49:25.326Z,97434.06
2022-09-15T04:52:28.637Z,97390.25
2022-09-15T04:55:32.332Z,97436.91
2022-09-15T04:58:37.725Z,97440.91
2022-09-15T05:01:40.569Z,97450.19
2022-09-15T05:04:44.160Z,97451.34
2022-09-15T05:07:50.234Z,97439.66
2022-09-15T05:10:53.468Z,97431.16
2022-09-15T05:13:56.887Z,97431.81
2022-09-15T05:17:00.308Z,97435.09
2022-09-15T05:20:04.976Z,97426.66
2022-09-15T05:23:08.054Z,97434.38
2022-09-15T05:26:16.189Z,97448.56
2022-09-15T05:29:20.487Z,97459.41
2022-09-15T05:32:23.387Z,97463.84
2022-09-15T05:35:26.926Z,97467.28
2022-09-15T05:38:31.480Z,97479.94
2022-09-15T05:41:34.752Z,97466.34
2022-09-15T05:44:37.990Z,97471.66
2022-09-15T05:47:41.142Z,97485.09
2022-09-15T05:50:49.359Z,97496.00
2022-09-15T05:53:52.467Z,97494.28
2022-09-15T05:56:55.543Z,97510.50
2022-09-15T05:59:59.097Z,97496.00
2022-09-15T06:03:02.142Z,97491.31
2022-09-15T06:06:06.397Z,97477.50
2022-09-15T06:09:09.569Z,97469.94
2022-09-15T06:12:12.765Z,97472.25
2022-09-15T06:15:15.979Z,97475.25
2022-09-15T06:18:19.299Z,97469.53
2022-09-15T06:21:26.818Z,97480.03
2022-09-15T06:24:29.879Z,97490.34
2022-09-15T06:27:33.083Z,97494.37
2022-09-15T06:30:39.701Z,97472.13
2022-09-15T06:33:44.651Z,97493.53
2022-09-15T06:36:47.809Z,97507.63
2022-09-15T06:39:51.210Z,97511.91
2022-09-15T06:42:57.668Z,97522.94
2022-09-15T06:46:09.813Z,97535.16
2022-09-15T06:49:12.872Z,97533.72
2022-09-15T06:52:15.634Z,97531.16
2022-09-15T06:55:18.608Z,97526.72
2022-09-15T06:58:21.303Z,97527.88
2022-09-15T07:01:29.567Z,97528.00
2022-09-15T07:04:34.723Z,97530.63
2022-09-15T07:07:37.774Z,97530.91
2022-09-15T07:10:44.168Z,97527.59
2022-09-15T07:13:50.813Z,97530.78
2022-09-15T07:16:54.051Z,97517.84
2022-09-15T07:19:57.520Z,97519.84
2022-09-15T07:23:00.098Z,97531.03
2022-09-15T07:26:08.453Z,97532.72
2022-09-15T07:29:12.299Z,97532.00
2022-09-15T07:32:15.309Z,97541.47
2022-09-15T07:35:18.777Z,97533.94
2022-09-15T07:38:22.208Z,97542.28
2022-09-15T07:41:29.382Z,97545.28
2022-09-15T07:44:32.602Z,97537.59
2022-09-15T07:47:35.671Z,97534.56
2022-09-15T07:50:39.119Z,97552.94
2022-09-15T07:53:43.635Z,97551.72
2022-09-15T07:56:47.426Z,97563.84
2022-09-15T07:59:50.303Z,97567.06
2022-09-15T08:02:53.810Z,97566.53
2022-09-15T08:05:58.832Z,97569.97
2022-09-15T08:09:02.350Z,97570.19
2022-09-15T08:12:06.819Z,97575.75
2022-09-15T08:15:09.959Z,97571.31
2022-09-15T08:18:13.195Z,97576.97
2022-09-15T08:21:21.006Z,97567.59
2022-09-15T08:24:24.630Z,97569.50
2022-09-15T08:27:27.851Z,97575.38
2022-09-15T08:30:31.238Z,97577.06
2022-09-15T08:33:34.781Z,97582.44
2022-09-15T08:36:38.817Z,97576.25
2022-09-15T08:39:41.589Z,97565.09
2022-09-15T08:42:47.045Z,97560.97
2022-09-15T08:45:56.275Z,97562.31
2022-09-15T08:49:05.672Z,97563.63
2022-09-15T08:52:17.071Z,97564.38
2022-09-15T08:55:50.283Z,97567.34
2022-09-15T08:58:52.955Z,97560.06
2022-09-15T09:02:39.352Z,97553.75
2022-09-15T09:05:45.630Z,97545.56
2022-09-15T09:08:56.115Z,97539.34
2022-09-15T09:12:29.332Z,97535.69
2022-09-15T09:15:54.153Z,97517.44
2022-09-15T09:19:23.755Z,97522.28
2022-09-15T09:22:33.163Z,97518.59
2022-09-15T09:25:36.775Z,97517.03
2022-09-15T09:28:50.240Z,97516.87
2022-09-15T09:31:53.637Z,97515.16
2022-09-15T09:35:09.110Z,97518.84
2022-09-15T09:38:15.014Z,97506.69
2022-09-15T09:41:23.339Z,97496.13
2022-09-15T09:44:31.888Z,97500.75
2022-09-15T09:47:36.543Z,97509.50
2022-09-15T09:50:45.344Z,97494.84
2022-09-15T09:53:53.920Z,97507.34
2022-09-15T09:57:17.668Z,97507.81
2022-09-15T10:00:35.560Z,97504.81
2022-09-15T10:03:38.898Z,97491.09
2022-09-15T10:06:41.795Z,97467.94
2022-09-15T10:09:50.583Z,97468.19
2022-09-15T10:12:57.021Z,97483.00
2022-09-15T10:16:01.588Z,97472.47
2022-09-15T10:19:04.543Z,97470.09
2022-09-15T10:22:07.725Z,97465.00
2022-09-15T10:25:19.889Z,97462.91
2022-09-15T10:28:25.981Z,97471.28
2022-09-15T10:31:32.027Z,97465.09
2022-09-15T10:34:36.419Z,97463.75
2022-09-15T10:38:23.482Z,97451.78
2022-09-15T10:41:31.479Z,97449.22
2022-09-15T10:44:47.167Z,97424.59
2022-09-15T10:48:07.141Z,97434.88
2022-09-15T10:51:16.510Z,97446.34
2022-09-15T10:54:59.745Z,97451.34
2022-09-15T10:58:11.590Z,97457.28
2022-09-15T11:01:30.380Z,97461.44
2022-09-15T11:04:45.582Z,97446.75
2022-09-15T11:08:27.841Z,97444.31
2022-09-15T11:11:39.209Z,97448.72
2022-09-15T11:14:45.152Z,97436.47
2022-09-15T11:18:29.053Z,97434.00
2022-09-15T11:21:36.831Z,97427.13
2022-09-15T11:24:48.557Z,97422.00
2022-09-15T11:28:01.580Z,97420.97
2022-09-15T11:31:19.646Z,97435.03
2022-09-15T11:34:33.661Z,97433.37
2022-09-15T11:37:40.084Z,97425.37
2022-09-15T11:40:48.977Z,97429.28
2022-09-15T11:43:55.225Z,97427.16
2022-09-15T11:47:30.766Z,97425.37
2022-09-15T11:50:39.494Z,97424.41
2022-09-15T11:54:06.408Z,97404.88
2022-09-15T11:57:16.999Z,97393.97
2022-09-15T12:00:21.247Z,97411.19
2022-09-15T12:03:29.164Z,97397.28
2022-09-15T12:07:14.892Z,97384.59
2022-09-15T12:10:22.712Z,97391.09
2022-09-15T12:13:26.405Z,97389.03
2022-09-15T12:16:30.482Z,97384.88
2022-09-15T12:19:33.575Z,97376.28
2022-09-15T12:22:59.316Z,97371.09
2022-09-15T12:26:18.349Z,97384.34
2022-09-15T12:29:27.431Z,97393.13
2022-09-15T12:32:33.215Z,97384.66
2022-09-15T12:35:36.665Z,97358.91
2022-09-15T12:38:39.660Z,97370.59
2022-09-15T12:42:06.738Z,97359.09
2022-09-15T12:45:33.370Z,97358.47
2022-09-15T12:48:36.711Z,97352.81
2022-09-15T12:51:39.340Z,97353.16
2022-09-15T12:54:43.628Z,97356.28
2022-09-15T12:57:55.188Z,97369.84
2022-09-15T13:01:24.553Z,97351.63
2022-09-15T13:04:51.521Z,97339.28
2022-09-15T13:07:58.266Z,97328.50
2022-09-15T13:11:03.854Z,97339.19
2022-09-15T13:14:10.840Z,97358.06
2022-09-15T13:17:17.046Z,97358.91
2022-09-15T13:20:26.166Z,97334.41
2022-09-15T13:23:35.280Z,97327.69
2022-09-15T13:26:38.470Z,97326.25
2022-09-15T13:29:56.361Z,97342.81
2022-09-15T13:41:20.837Z,97346.78
2022-09-15T13:44:42.078Z,97372.53
2022-09-15T13:47:55.306Z,97373.91
2022-09-15T13:51:00.887Z,97357.31
2022-09-15T13:54:06.893Z,97363.66
2022-09-15T13:57:09.481Z,97367.97
2022-09-15T14:00:26.880Z,97375.75
2022-09-15T14:03:55.353Z,97381.34
2022-09-15T14:07:01.075Z,97379.50
2022-09-15T14:10:04.894Z,97387.13
2022-09-15T14:13:14.298Z,97381.25
2022-09-15T14:16:33.969Z,97352.94
2022-09-15T14:19:38.390Z,97345.22
2022-09-15T14:22:41.377Z,97355.59
2022-09-15T14:25:45.912Z,97367.19
2022-09-15T14:28:50.388Z,97336.50
2022-09-15T14:31:53.428Z,97336.19
2022-09-15T14:34:58.690Z,97355.56
2022-09-15T14:38:01.486Z,97350.44
2022-09-15T14:41:05.435Z,97367.50
2022-09-15T14:45:55.626Z,97364.22
2022-09-15T14:47:43.455Z,97354.28
2022-09-15T14:51:00.502Z,97353.00
2022-09-15T14:54:03.977Z,97359.03
2022-09-15T14:57:06.703Z,97353.56
2022-09-15T15:00:15.620Z,97346.41
2022-09-15T15:03:50.794Z,97347.13
2022-09-15T15:07:22.799Z,97352.03
2022-09-15T15:10:32.175Z,97368.53
2022-09-15T15:13:42.444Z,97363.78
2022-09-15T15:17:05.902Z,97357.47
2022-09-15T15:20:09.195Z,97363.34
2022-09-15T15:23:26.287Z,97371.22
2022-09-15T15:26:37.811Z,97370.66
2022-09-15T15:29:45.397Z,97353.03
2022-09-15T15:32:48.320Z,97361.25
2022-09-15T15:36:04.491Z,97372.88
2022-09-15T15:39:17.273Z,97371.13
2022-09-15T15:42:20.688Z,97336.88
2022-09-15T15:45:26.455Z,97324.22
2022-09-15T15:48:35.271Z,97299.44
2022-09-15T15:51:40.968Z,97298.69
2022-09-15T15:54:43.745Z,97303.25
2022-09-15T15:57:54.163Z,97332.59
2022-09-15T16:00:57.783Z,97363.81
2022-09-15T16:04:00.746Z,97364.25
2022-09-15T16:07:03.985Z,97354.09
2022-09-15T16:10:08.323Z,97340.47
2022-09-15T16:13:16.035Z,97333.87
2022-09-15T16:16:24.036Z,97322.38
2022-09-15T16:19:26.632Z,97327.00
2022-09-15T16:22:29.614Z,97324.53
2022-09-15T16:25:40.114Z,97320.66
2022-09-15T16:28:43.200Z,97316.94
2022-09-15T16:31:45.805Z,97319.81
2022-09-15T16:34:53.925Z,97306.16
2022-09-15T16:37:56.416Z,97304.88
2022-09-15T16:41:00.381Z,97296.13
2022-09-15T16:44:04.087Z,97292.81
2022-09-15T16:47:07.182Z,97287.94
2022-09-15T16:50:11.490Z,97290.94
2022-09-15T16:53:18.624Z,97290.38
2022-09-15T16:56:21.099Z,97294.53
2022-09-15T16:59:24.793Z,97303.84
2022-09-15T17:02:27.368Z,97312.03
2022-09-15T17:05:50.279Z,97310.41
2022-09-15T17:08:53.388Z,97305.69
2022-09-15T17:11:56.486Z,97313.28
2022-09-15T17:14:58.993Z,97323.31
2022-09-15T17:18:01.951Z,97303.66
2022-09-15T17:21:05.510Z,97334.19
2022-09-15T17:24:09.083Z,97334.59
2022-09-15T17:27:11.628Z,97321.28
2022-09-15T17:30:14.605Z,97327.72
2022-09-15T17:33:18.329Z,97321.41
2022-09-15T17:36:27.829Z,97310.06
2022-09-15T17:39:30.418Z,97320.66
2022-09-15T17:42:33.201Z,97319.63
2022-09-15T17:45:36.612Z,97321.50
2022-09-15T17:48:39.685Z,97316.06
2022-09-15T17:51:42.242Z,97320.03
2022-09-15T17:54:45.162Z,97320.59
2022-09-15T17:57:48.898Z,97321.88
2022-09-15T18:00:53.141Z,97317.16
2022-09-15T18:03:56.020Z,97315.84
2022-09-15T18:06:58.504Z,97314.25
2022-09-15T18:10:01.527Z,97316.09
2022-09-15T18:13:05.270Z,97307.09
2022-09-15T18:16:11.959Z,97314.50
2022-09-15T18:19:14.589Z,97322.06
2022-09-15T18:22:17.413Z,97300.44
2022-09-15T18:25:28.177Z,97308.91
2022-09-15T18:28:30.954Z,97304.56
2022-09-15T18:31:33.497Z,97303.84
2022-09-15T18:34:36.377Z,97306.56
2022-09-15T18:37:39.111Z,97312.25
2022-09-15T18:40:46.737Z,97310.25
2022-09-15T18:43:49.350Z,97320.28
2022-09-15T18:46:52.538Z,97330.31
2022-09-15T18:49:55.104Z,97328.28
2022-09-15T18:52:58.117Z,97322.53
2022-09-15T18:56:00.620Z,97312.94
2022-09-15T18:59:03.599Z,97323.22
2022-09-15T19:02:06.443Z,97330.66
2022-09-15T19:05:15.373Z,97334.09
2022-09-15T19:08:18.005Z,97336.69
2022-09-15T19:11:20.853Z,97338.81
2022-09-15T19:14:23.450Z,97346.25
2022-09-15T19:17:26.321Z,97352.69
2022-09-15T19:20:29.968Z,97313.19
2022-09-15T19:23:32.835Z,97367.59
2022-09-15T19:26:35.864Z,97359.22
2022-09-15T19:29:38.994Z,97349.44
2022-09-15T19:32:42.983Z,97353.28
2022-09-15T19:35:46.135Z,97370.31
2022-09-15T19:38:48.745Z,97365.00
2022-09-15T19:41:51.763Z,97362.81
2022-09-15T19:44:54.382Z,97368.00
2022-09-15T19:47:58.424Z,97372.81
2022-09-15T19:51:01.305Z,97358.97
2022-09-15T19:54:04.559Z,97363.22
2022-09-15T19:57:07.087Z,97363.94
2022-09-15T20:00:12.067Z,97363.09
2022-09-15T20:03:15.417Z,97358.63
2022-09-15T20:06:17.855Z,97366.19
2022-09-15T20:09:21.142Z,97360.75
2022-09-15T20:12:24.807Z,97357.78
2022-09-15T20:15:27.618Z,97365.94
2022-09-15T20:18:36.584Z,97366.91
2022-09-15T20:21:55.587Z,97370.66
2022-09-15T20:24:58.156Z,97379.47
2022-09-15T20:28:00.975Z,97384.03
2022-09-15T20:31:24.250Z,97385.03
2022-09-15T20:34:27.069Z,97392.34
2022-09-15T20:37:32.078Z,97403.81
2022-09-15T20:40:37.505Z,97401.22
2022-09-15T20:43:41.595Z,97394.63
2022-09-15T20:46:44.791Z,97390.34
2022-09-15T20:49:47.429Z,97389.00
2022-09-15T20:52:50.296Z,97398.38
2022-09-15T20:55:52.798Z,97400.00
2022-09-15T20:58:59.929Z,97407.31
2022-09-15T21:02:04.781Z,97403.88
2022-09-15T21:05:08.791Z,97424.84
2022-09-15T21:08:12.036Z,97423.06
2022-09-15T21:11:16.279Z,97436.59
2022-09-15T21:14:18.879Z,97425.84
2022-09-15T21:17:23.171Z,97419.41
2022-09-15T21:20:27.265Z,97421.00
2022-09-15T21:23:37.875Z,97432.00
2022-09-15T21:27:00.185Z,97439.31
2022-09-15T21:30:03.433Z,97434.00
2022-09-15T21:33:06.476Z,97428.56
2022-09-15T21:36:10.452Z,97436.47
2022-09-15T21:39:13.012Z,97437.44
2022-09-15T21:42:15.972Z,97437.97
2022-09-15T21:45:18.457Z,97439.69
2022-09-15T21:48:21.282Z,97429.09
2022-09-15T21:51:25.442Z,97430.81
2022-09-15T21:54:28.346Z,97435.03
2022-09-15T21:57:30.902Z,97425.03
2022-09-15T22:00:36.740Z,97418.50
2022-09-15T22:03:43.092Z,97439.84
2022-09-15T22:06:46.914Z,97455.09
2022-09-15T22:09:49.873Z,97462.09
2022-09-15T22:12:52.863Z,97474.81
2022-09-15T22:16:07.776Z,97476.94
2022-09-15T22:19:11.729Z,97480.00
2022-09-15T22:22:14.451Z,97477.28
2022-09-15T22:25:21.689Z,97479.16
2022-09-15T22:28:24.828Z,97484.47
2022-09-15T22:31:30.767Z,97483.97
2022-09-15T22:34:33.697Z,97488.16
2022-09-15T22:37:36.326Z,97492.41
2022-09-15T22:40:39.224Z,97503.47
2022-09-15T22:43:43.565Z,97502.13
2022-09-15T22:46:46.583Z,97507.66
2022-09-15T22:49:49.081Z,97505.19
2022-09-15T22:52:52.301Z,97500.75
2022-09-15T22:56:06.879Z,97507.28
2022-09-15T22:59:09.775Z,97517.16
2022-09-15T23:02:14.450Z,97522.84
2022-09-15T23:05:17.337Z,97532.84
2022-09-15T23:08:19.802Z,97534.09
2022-09-15T23:11:23.096Z,97544.94
2022-09-15T23:14:25.671Z,97544.94
2022-09-15T23:17:28.411Z,97554.06
2022-09-15T23:20:31.082Z,97563.81
2022-09-15T23:23:35.617Z,97568.88
2022-09-15T23:26:38.198Z,97571.59
2022-09-15T23:29:40.924Z,97571.69
2022-09-15T23:32:43.604Z,97573.56
2022-09-15T23:35:46.709Z,97571.69
2022-09-15T23:38:49.958Z,97587.88
2022-09-15T23:41:53.025Z,97588.62
2022-09-15T23:44:55.523Z,97585.53
2022-09-15T23:47:58.337Z,97584.66
2022-09-15T23:51:01.143Z,97592.56
2022-09-15T23:54:04.746Z,97586.00
2022-09-15T23:57:08.831Z,97595.16
